createdAt,value
2023-01-30T00:01:38.921Z,10.52
2023-01-30T00:04:05.785Z,10.20
2023-01-30T00:06:32.866Z,11.10
2023-01-30T00:08:59.675Z,10.70
2023-01-30T00:11:28.630Z,10.25
2023-01-30T00:13:55.517Z,10.70
2023-01-30T00:16:22.348Z,10.93
2023-01-30T00:18:49.265Z,10.70
2023-01-30T00:21:16.194Z,11.65
2023-01-30T00:23:43.495Z,11.77
2023-01-30T00:26:11.252Z,11.13
2023-01-30T00:28:39.489Z,11.65
2023-01-30T00:31:06.227Z,10.95
2023-01-30T00:33:32.902Z,11.02
2023-01-30T00:36:02.824Z,11.70
2023-01-30T00:38:29.595Z,11.95
2023-01-30T00:40:56.282Z,11.50
2023-01-30T00:43:41.681Z,12.27
2023-01-30T00:46:35.479Z,12.57
2023-01-30T00:49:02.358Z,12.47
2023-01-30T00:51:29.297Z,12.55
2023-01-30T00:53:56.090Z,12.63
2023-01-30T00:56:22.865Z,11.63
2023-01-30T00:58:49.627Z,12.02
2023-01-30T01:01:16.281Z,12.77
2023-01-30T01:03:43.802Z,12.43
2023-01-30T01:06:10.624Z,12.48
2023-01-30T01:08:37.452Z,12.73
2023-01-30T01:11:04.477Z,13.02
2023-01-30T01:13:31.156Z,12.45
2023-01-30T01:15:57.936Z,12.07
2023-01-30T01:18:25.010Z,12.00
2023-01-30T01:20:51.774Z,11.93
2023-01-30T01:23:18.542Z,12.32
2023-01-30T01:25:45.706Z,12.15
2023-01-30T01:28:12.463Z,13.25
2023-01-30T01:30:39.350Z,12.95
2023-01-30T01:33:06.018Z,12.88
2023-01-30T01:35:32.703Z,12.80
2023-01-30T01:37:59.463Z,13.18
2023-01-30T01:40:44.744Z,12.90
2023-01-30T01:43:19.787Z,11.10
2023-01-30T01:45:49.799Z,12.75
2023-01-30T01:48:22.656Z,13.77
2023-01-30T01:51:15.686Z,12.70
2023-01-30T01:53:51.285Z,13.55
2023-01-30T01:56:20.162Z,12.88
2023-01-30T01:58:52.838Z,13.27
2023-01-30T02:01:19.629Z,13.38
2023-01-30T02:03:52.910Z,13.55
2023-01-30T02:06:21.821Z,13.00
2023-01-30T02:08:53.781Z,14.75
2023-01-30T02:11:23.312Z,14.73
2023-01-30T02:13:50.976Z,13.70
2023-01-30T02:16:18.277Z,12.90
2023-01-30T02:18:46.947Z,13.25
2023-01-30T02:21:51.368Z,14.02
2023-01-30T02:24:44.827Z,14.02
2023-01-30T02:27:30.488Z,14.60
2023-01-30T02:30:18.013Z,14.80
2023-01-30T02:32:56.835Z,14.90
2023-01-30T02:35:42.503Z,14.52
2023-01-30T02:38:42.294Z,14.15
2023-01-30T02:41:26.948Z,15.50
2023-01-30T02:44:15.228Z,15.18
2023-01-30T02:47:10.232Z,14.35
2023-01-30T02:49:44.683Z,14.38
2023-01-30T02:52:14.037Z,15.32
2023-01-30T02:54:40.816Z,15.82
2023-01-30T02:57:20.711Z,16.00
2023-01-30T02:59:50.893Z,15.85
2023-01-30T03:02:23.506Z,14.88
2023-01-30T03:05:19.900Z,14.82
2023-01-30T03:08:28.323Z,14.95
2023-01-30T03:11:00.804Z,15.45
2023-01-30T03:14:00.191Z,15.45
2023-01-30T03:16:35.278Z,15.75
2023-01-30T03:19:04.423Z,15.15
2023-01-30T03:21:31.142Z,15.95
2023-01-30T03:23:57.824Z,16.67
2023-01-30T03:26:30.711Z,16.33
2023-01-30T03:28:57.904Z,15.65
2023-01-30T03:31:24.650Z,17.77
2023-01-30T03:33:51.406Z,17.25
2023-01-30T03:36:18.288Z,18.58
2023-01-30T03:38:45.058Z,17.80
2023-01-30T03:41:11.789Z,17.70
2023-01-30T03:43:38.464Z,18.52
2023-01-30T03:46:05.137Z,15.32
2023-01-30T03:48:31.932Z,17.92
2023-01-30T03:50:59.072Z,16.00
2023-01-30T03:53:25.723Z,16.23
2023-01-30T03:55:52.500Z,17.50
2023-01-30T03:58:19.153Z,18.38
2023-01-30T04:00:45.859Z,17.83
2023-01-30T04:03:12.518Z,17.75
2023-01-30T04:05:39.373Z,16.98
2023-01-30T04:08:06.022Z,17.23
2023-01-30T04:10:32.974Z,16.52
2023-01-30T04:12:59.731Z,16.67
2023-01-30T04:15:26.447Z,16.85
2023-01-30T04:17:53.191Z,18.88
2023-01-30T04:20:20.446Z,17.13
2023-01-30T04:22:47.217Z,18.90
2023-01-30T04:25:13.949Z,16.75
2023-01-30T04:27:40.817Z,17.25
2023-01-30T04:30:08.092Z,17.42
2023-01-30T04:32:34.755Z,18.60
2023-01-30T04:35:01.611Z,17.98
2023-01-30T04:37:28.326Z,17.23
2023-01-30T04:39:55.002Z,17.20
2023-01-30T04:42:21.765Z,17.70
2023-01-30T04:44:48.418Z,17.95
2023-01-30T04:47:15.220Z,17.77
2023-01-30T04:49:41.970Z,17.20
2023-01-30T04:52:08.808Z,17.88
2023-01-30T04:54:35.624Z,17.77
2023-01-30T04:57:02.321Z,15.77
2023-01-30T04:59:29.040Z,16.75
2023-01-30T05:01:55.918Z,15.90
2023-01-30T05:04:22.665Z,16.48
2023-01-30T05:06:49.342Z,16.10
2023-01-30T05:09:16.206Z,15.82
2023-01-30T05:11:42.928Z,16.02
2023-01-30T05:14:09.598Z,14.40
2023-01-30T05:16:36.333Z,17.65
2023-01-30T05:19:03.048Z,17.13
2023-01-30T05:21:29.818Z,15.80
2023-01-30T05:23:57.603Z,17.50
2023-01-30T05:26:25.230Z,17.67
2023-01-30T05:28:56.677Z,18.33
2023-01-30T05:31:24.039Z,16.83
2023-01-30T05:33:52.279Z,18.50
2023-01-30T05:36:20.737Z,17.05
2023-01-30T05:38:47.507Z,18.33
2023-01-30T05:41:16.424Z,18.70
2023-01-30T05:43:43.424Z,16.92
2023-01-30T05:46:12.287Z,18.98
2023-01-30T05:48:39.641Z,20.27
2023-01-30T05:51:06.760Z,19.60
2023-01-30T05:53:35.006Z,19.63
2023-01-30T05:56:04.935Z,19.42
2023-01-30T05:58:32.787Z,19.13
2023-01-30T06:01:05.166Z,19.13
2023-01-30T06:03:32.619Z,19.80
2023-01-30T06:06:01.090Z,19.67
2023-01-30T06:08:27.739Z,19.35
2023-01-30T06:10:54.429Z,20.42
2023-01-30T06:13:21.170Z,21.08
2023-01-30T06:15:47.963Z,20.25
2023-01-30T06:18:14.929Z,21.88
2023-01-30T06:20:41.672Z,20.52
2023-01-30T06:23:08.455Z,20.73
2023-01-30T06:25:35.158Z,21.20
2023-01-30T06:28:01.858Z,19.95
2023-01-30T06:30:28.502Z,20.90
2023-01-30T06:32:55.307Z,20.50
2023-01-30T06:35:22.036Z,20.00
2023-01-30T06:37:48.880Z,21.58
2023-01-30T06:40:15.596Z,21.77
2023-01-30T06:42:47.204Z,20.63
2023-01-30T06:45:15.466Z,20.98
2023-01-30T06:47:47.290Z,19.95
2023-01-30T06:50:15.134Z,20.13
2023-01-30T06:52:46.640Z,20.05
2023-01-30T06:55:15.826Z,20.23
2023-01-30T06:57:43.455Z,20.35
2023-01-30T07:00:16.692Z,20.60
2023-01-30T07:02:43.423Z,20.33
2023-01-30T07:05:10.398Z,19.17
2023-01-30T07:07:37.929Z,19.92
2023-01-30T07:10:08.557Z,19.95
2023-01-30T07:12:36.372Z,20.70
2023-01-30T07:15:04.708Z,19.90
2023-01-30T07:17:31.405Z,19.92
2023-01-30T07:19:58.265Z,20.38
2023-01-30T07:22:25.054Z,20.17
2023-01-30T07:24:51.715Z,19.95
2023-01-30T07:27:18.463Z,19.65
2023-01-30T07:29:45.170Z,18.95
2023-01-30T07:32:18.395Z,18.67
2023-01-30T07:34:45.508Z,17.08
2023-01-30T07:37:12.482Z,18.63
2023-01-30T07:39:39.263Z,19.80
2023-01-30T07:42:06.309Z,17.67
2023-01-30T07:44:34.114Z,16.52
2023-01-30T07:47:01.456Z,18.20
2023-01-30T07:49:28.307Z,15.48
2023-01-30T07:51:55.009Z,16.50
2023-01-30T07:54:21.686Z,17.05
2023-01-30T07:56:48.470Z,15.98
2023-01-30T07:59:15.147Z,15.00
2023-01-30T08:01:41.926Z,15.55
2023-01-30T08:04:08.645Z,15.20
2023-01-30T08:06:39.034Z,16.40
2023-01-30T08:09:07.397Z,14.75
2023-01-30T08:11:34.668Z,16.02
2023-01-30T08:14:02.428Z,16.02
2023-01-30T08:16:29.216Z,16.45
2023-01-30T08:18:55.944Z,14.77
2023-01-30T08:21:22.695Z,15.90
2023-01-30T08:23:49.619Z,14.18
2023-01-30T08:26:16.540Z,13.50
2023-01-30T08:28:43.226Z,13.70
2023-01-30T08:31:14.424Z,13.90
2023-01-30T08:33:41.424Z,12.00
2023-01-30T08:36:08.683Z,13.15
2023-01-30T08:38:35.624Z,12.63
2023-01-30T08:41:05.133Z,12.38
2023-01-30T08:43:31.797Z,12.65
2023-01-30T08:45:58.751Z,12.02
2023-01-30T08:48:25.499Z,13.05
2023-01-30T08:50:56.193Z,12.65
2023-01-30T08:53:23.569Z,12.95
2023-01-30T08:55:54.061Z,13.38
2023-01-30T08:58:21.886Z,13.05
2023-01-30T09:00:49.469Z,13.00
2023-01-30T09:03:16.987Z,13.48
2023-01-30T09:05:43.809Z,12.82
2023-01-30T09:08:10.488Z,12.93
2023-01-30T09:10:37.271Z,13.30
2023-01-30T09:13:05.561Z,12.10
2023-01-30T09:15:32.867Z,12.95
2023-01-30T09:17:59.725Z,13.15
2023-01-30T09:20:26.812Z,13.02
2023-01-30T09:22:53.518Z,13.43
2023-01-30T09:25:20.509Z,13.13
2023-01-30T09:27:51.018Z,12.75
2023-01-30T09:30:23.924Z,13.20
2023-01-30T09:32:50.620Z,11.70
2023-01-30T09:35:17.708Z,12.85
2023-01-30T09:37:49.443Z,12.52
2023-01-30T09:40:19.260Z,11.45
2023-01-30T09:43:19.022Z,11.43
2023-01-30T09:46:01.139Z,12.27
2023-01-30T09:48:55.364Z,11.63
2023-01-30T09:51:47.519Z,12.07
2023-01-30T09:54:22.226Z,11.93
2023-01-30T09:57:21.570Z,11.07
2023-01-30T10:00:13.561Z,11.05
2023-01-30T10:02:43.090Z,11.38
2023-01-30T10:05:10.194Z,10.50
2023-01-30T10:07:52.061Z,9.30
2023-01-30T10:11:09.543Z,10.48
2023-01-30T10:13:58.431Z,9.55
2023-01-30T10:16:32.466Z,8.88
2023-01-30T10:19:34.788Z,8.48
2023-01-30T10:22:29.994Z,9.50
2023-01-30T10:25:17.482Z,7.40
2023-01-30T10:27:56.253Z,7.75
2023-01-30T10:30:23.586Z,7.55
2023-01-30T10:33:06.718Z,7.22
2023-01-30T10:35:39.288Z,6.90
2023-01-30T10:38:30.285Z,6.97
2023-01-30T10:41:13.242Z,6.00
2023-01-30T10:43:56.700Z,4.68
2023-01-30T10:46:54.431Z,4.95
2023-01-30T10:49:40.980Z,3.20
2023-01-30T10:52:34.333Z,3.83
2023-01-30T10:55:04.169Z,3.35
2023-01-30T10:57:44.102Z,2.67
2023-01-30T11:00:11.046Z,3.05
2023-01-30T11:02:43.942Z,3.08
2023-01-30T11:05:10.636Z,2.53
2023-01-30T11:07:37.248Z,2.92
2023-01-30T11:10:18.124Z,2.38
2023-01-30T11:12:44.849Z,2.28
2023-01-30T11:15:11.897Z,2.45
2023-01-30T11:17:43.180Z,2.40
2023-01-30T11:20:19.891Z,2.42
2023-01-30T11:23:08.241Z,2.70
2023-01-30T11:25:50.017Z,2.35
2023-01-30T11:28:19.759Z,2.53
2023-01-30T11:30:55.956Z,2.25
2023-01-30T11:33:31.505Z,2.85
2023-01-30T11:36:07.621Z,2.92
2023-01-30T11:38:38.783Z,2.45
2023-01-30T11:41:22.192Z,2.53
2023-01-30T11:43:48.877Z,3.25
2023-01-30T11:46:20.859Z,3.10
2023-01-30T11:49:11.200Z,2.80
2023-01-30T11:54:24.080Z,3.13
2023-01-30T11:56:56.898Z,3.60
2023-01-30T11:59:34.590Z,3.05
2023-01-30T12:02:24.678Z,3.30
2023-01-30T12:05:21.379Z,2.88
2023-01-30T12:07:51.105Z,3.10
2023-01-30T12:10:24.009Z,2.78
2023-01-30T12:12:56.465Z,3.38
2023-01-30T12:15:25.165Z,3.08
2023-01-30T12:18:10.387Z,2.88
2023-01-30T12:21:02.109Z,3.00
2023-01-30T12:23:37.731Z,3.97
2023-01-30T12:26:22.435Z,2.33
2023-01-30T12:29:19.659Z,2.63
2023-01-30T12:32:14.435Z,2.40
2023-01-30T12:34:43.755Z,2.10
2023-01-30T12:37:48.165Z,2.30
2023-01-30T12:40:26.797Z,2.13
2023-01-30T12:42:56.321Z,2.03
2023-01-30T12:45:47.729Z,2.33
2023-01-30T12:48:31.401Z,2.00
2023-01-30T12:50:58.069Z,2.10
2023-01-30T12:53:36.111Z,1.38
2023-01-30T12:56:37.722Z,1.40
2023-01-30T12:59:59.376Z,2.25
2023-01-30T13:03:10.691Z,2.17
2023-01-30T13:05:55.149Z,2.70
2023-01-30T13:08:42.730Z,2.70
2023-01-30T13:11:17.077Z,2.13
2023-01-30T13:13:52.481Z,2.33
2023-01-30T13:16:30.417Z,3.15
2023-01-30T13:19:21.108Z,2.65
2023-01-30T13:22:07.158Z,3.35
2023-01-30T13:24:46.549Z,2.78
2023-01-30T13:27:18.863Z,2.03
2023-01-30T13:29:47.730Z,2.40
2023-01-30T13:32:37.215Z,3.03
2023-01-30T13:35:14.260Z,2.47
2023-01-30T13:37:41.863Z,2.90
2023-01-30T13:40:40.905Z,2.70
2023-01-30T13:43:31.536Z,2.78
2023-01-30T13:46:02.931Z,2.70
2023-01-30T13:48:48.096Z,2.58
2023-01-30T13:51:31.607Z,2.90
2023-01-30T13:54:20.857Z,2.72
2023-01-30T13:56:47.551Z,2.35
2023-01-30T13:59:35.321Z,2.60
2023-01-30T14:02:09.376Z,2.25
2023-01-30T14:04:42.184Z,2.35
2023-01-30T14:07:14.947Z,2.40
2023-01-30T14:09:49.393Z,1.83
2023-01-30T14:12:24.566Z,2.70
2023-01-30T14:15:05.181Z,2.88
2023-01-30T14:17:32.227Z,2.22
2023-01-30T14:20:15.892Z,2.40
2023-01-30T14:22:55.285Z,2.83
2023-01-30T14:25:28.294Z,2.72
2023-01-30T14:28:01.755Z,2.45
2023-01-30T14:30:31.368Z,2.45
2023-01-30T14:33:00.467Z,2.33
2023-01-30T14:35:31.836Z,3.08
2023-01-30T14:38:05.632Z,2.42
2023-01-30T14:40:34.917Z,1.92
2023-01-30T14:43:16.774Z,2.42
2023-01-30T14:45:51.479Z,1.70
2023-01-30T14:48:33.623Z,1.92
2023-01-30T14:51:35.918Z,1.95
2023-01-30T14:54:12.138Z,1.48
2023-01-30T14:56:48.299Z,1.75
2023-01-30T14:59:29.876Z,1.30
2023-01-30T15:02:06.409Z,1.73
2023-01-30T15:04:51.929Z,1.60
2023-01-30T15:07:27.669Z,1.55
2023-01-30T15:10:21.368Z,1.25
2023-01-30T15:12:47.991Z,1.48
2023-01-30T15:15:26.992Z,1.13
2023-01-30T15:18:28.984Z,1.67
2023-01-30T15:20:55.795Z,1.33
2023-01-30T15:23:40.023Z,1.40
2023-01-30T15:26:15.374Z,1.40
2023-01-30T15:29:00.621Z,1.50
2023-01-30T15:31:27.450Z,1.75
2023-01-30T15:33:57.012Z,1.30
2023-01-30T15:36:25.837Z,1.50
2023-01-30T15:39:24.759Z,1.23
2023-01-30T15:41:53.289Z,1.17
2023-01-30T15:44:34.035Z,1.17
2023-01-30T15:47:25.144Z,1.67
2023-01-30T15:49:51.776Z,1.17
2023-01-30T15:52:20.051Z,1.65
2023-01-30T15:54:52.391Z,1.20
2023-01-30T15:57:26.393Z,1.20
2023-01-30T15:59:55.769Z,1.90
2023-01-30T16:02:25.499Z,1.38
2023-01-30T16:05:12.810Z,0.98
2023-01-30T16:07:39.612Z,1.58
2023-01-30T16:10:16.397Z,1.20
2023-01-30T16:12:44.139Z,1.65
2023-01-30T16:15:26.996Z,0.98
2023-01-30T16:18:19.864Z,1.13
2023-01-30T16:21:00.466Z,2.08
2023-01-30T16:23:36.030Z,1.70
2023-01-30T16:26:03.787Z,1.55
2023-01-30T16:28:32.081Z,1.42
2023-01-30T16:31:00.004Z,1.35
2023-01-30T16:33:27.239Z,1.45
2023-01-30T16:35:53.947Z,1.70
2023-01-30T16:38:44.379Z,1.85
2023-01-30T16:41:31.753Z,1.40
2023-01-30T16:44:20.338Z,1.70
2023-01-30T16:47:04.613Z,1.65
2023-01-30T16:49:37.474Z,1.58
2023-01-30T16:52:12.635Z,1.65
2023-01-30T16:54:41.236Z,1.70
2023-01-30T16:57:14.474Z,1.88
2023-01-30T16:59:41.352Z,2.03
2023-01-30T17:02:23.222Z,2.25
2023-01-30T17:04:49.993Z,2.10
2023-01-30T17:07:37.983Z,2.10
2023-01-30T17:10:05.149Z,1.40
2023-01-30T17:12:37.153Z,2.28
2023-01-30T17:15:10.005Z,1.63
2023-01-30T17:17:36.710Z,2.03
2023-01-30T17:20:04.057Z,2.20
2023-01-30T17:22:32.187Z,2.45
2023-01-30T17:25:04.270Z,2.25
2023-01-30T17:27:31.856Z,2.38
2023-01-30T17:29:58.932Z,2.45
2023-01-30T17:32:25.893Z,2.97
2023-01-30T17:34:52.556Z,3.25
2023-01-30T17:37:22.454Z,2.78
2023-01-30T17:39:49.689Z,6.47
2023-01-30T17:42:22.018Z,6.45
2023-01-30T17:44:49.285Z,2.78
2023-01-30T17:47:16.024Z,3.58
2023-01-30T17:49:42.797Z,2.13
2023-01-30T17:52:11.299Z,2.30
2023-01-30T17:54:38.020Z,2.63
2023-01-30T17:57:06.867Z,2.33
2023-01-30T17:59:33.765Z,3.00
2023-01-30T18:02:00.577Z,2.53
2023-01-30T18:04:27.403Z,3.35
2023-01-30T18:06:58.929Z,3.05
2023-01-30T18:09:26.844Z,2.88
2023-01-30T18:11:53.677Z,2.40
2023-01-30T18:14:22.171Z,3.05
2023-01-30T18:16:49.834Z,2.83
2023-01-30T18:19:18.471Z,2.45
2023-01-30T18:21:45.661Z,2.53
2023-01-30T18:24:13.174Z,2.38
2023-01-30T18:26:40.534Z,3.08
2023-01-30T18:29:09.588Z,3.90
2023-01-30T18:31:37.298Z,3.15
2023-01-30T18:34:04.231Z,2.75
2023-01-30T18:36:33.875Z,3.33
2023-01-30T18:39:00.833Z,3.08
2023-01-30T18:41:28.659Z,2.70
2023-01-30T18:43:57.808Z,3.20
2023-01-30T18:46:25.899Z,3.15
2023-01-30T18:48:53.211Z,3.55
2023-01-30T18:51:22.419Z,3.10
2023-01-30T18:53:50.940Z,2.88
2023-01-30T18:56:26.427Z,3.75
2023-01-30T18:58:56.672Z,2.72
2023-01-30T19:01:28.717Z,3.60
2023-01-30T19:04:01.093Z,3.28
2023-01-30T19:06:28.915Z,4.45
2023-01-30T19:09:00.112Z,3.78
2023-01-30T19:11:45.426Z,4.13
2023-01-30T19:14:13.486Z,4.18
2023-01-30T19:16:40.643Z,4.35
2023-01-30T19:19:08.822Z,4.13
2023-01-30T19:21:36.006Z,4.72
2023-01-30T19:24:04.169Z,3.97
2023-01-30T19:26:30.869Z,4.53
2023-01-30T19:28:57.809Z,4.35
2023-01-30T19:31:24.641Z,4.00
2023-01-30T19:33:58.234Z,3.95
2023-01-30T19:36:26.457Z,4.05
2023-01-30T19:38:53.396Z,4.13
2023-01-30T19:41:26.013Z,3.50
2023-01-30T19:43:54.218Z,3.85
2023-01-30T19:46:21.881Z,4.15
2023-01-30T19:48:49.342Z,3.78
2023-01-30T19:51:23.358Z,4.57
2023-01-30T19:53:55.570Z,4.05
2023-01-30T19:56:24.858Z,4.10
2023-01-30T19:58:52.811Z,3.97
2023-01-30T20:01:21.540Z,4.82
2023-01-30T20:03:49.418Z,4.93
2023-01-30T20:06:21.512Z,4.45
2023-01-30T20:08:50.274Z,4.38
2023-01-30T20:11:19.574Z,5.03
2023-01-30T20:13:46.609Z,5.28
2023-01-30T20:16:18.423Z,4.13
2023-01-30T20:18:48.267Z,4.18
2023-01-30T20:21:18.142Z,3.33
2023-01-30T20:23:46.383Z,4.07
2023-01-30T20:26:18.698Z,4.53
2023-01-30T20:28:45.868Z,3.88
2023-01-30T20:31:15.959Z,3.80
2023-01-30T20:33:42.896Z,3.75
2023-01-30T20:36:12.809Z,4.38
2023-01-30T20:38:42.001Z,4.10
2023-01-30T20:41:14.940Z,3.95
2023-01-30T20:43:47.079Z,4.72
2023-01-30T20:46:16.730Z,3.78
2023-01-30T20:48:43.641Z,3.30
2023-01-30T20:51:22.718Z,4.30
2023-01-30T20:53:58.004Z,3.30
2023-01-30T20:56:26.676Z,4.60
2023-01-30T20:58:53.381Z,4.43
2023-01-30T21:01:23.106Z,5.75
2023-01-30T21:03:52.409Z,4.57
2023-01-30T21:06:39.931Z,3.97
2023-01-30T21:09:13.610Z,3.50
2023-01-30T21:11:40.401Z,3.70
2023-01-30T21:14:07.576Z,4.15
2023-01-30T21:16:37.090Z,4.18
2023-01-30T21:19:06.924Z,4.03
2023-01-30T21:21:43.337Z,3.50
2023-01-30T21:24:13.617Z,3.75
2023-01-30T21:26:45.831Z,3.33
2023-01-30T21:29:15.476Z,3.22
2023-01-30T21:31:44.225Z,3.58
2023-01-30T21:34:12.093Z,3.03
2023-01-30T21:36:39.282Z,3.60
2023-01-30T21:39:24.645Z,3.13
2023-01-30T21:42:10.112Z,3.58
2023-01-30T21:44:37.976Z,2.97
2023-01-30T21:47:06.811Z,3.90
2023-01-30T21:49:34.470Z,3.63
2023-01-30T21:52:01.128Z,3.03
2023-01-30T21:54:28.053Z,2.63
2023-01-30T21:56:54.782Z,3.40
2023-01-30T21:59:21.485Z,3.15
2023-01-30T22:01:48.693Z,3.67
2023-01-30T22:04:15.653Z,3.67
2023-01-30T22:06:43.347Z,3.63
2023-01-30T22:09:13.802Z,2.90
2023-01-30T22:11:40.706Z,3.50
2023-01-30T22:14:07.365Z,3.38
2023-01-30T22:16:34.364Z,3.42
2023-01-30T22:19:03.908Z,3.13
2023-01-30T22:21:33.733Z,4.50
2023-01-30T22:24:02.266Z,3.67
2023-01-30T22:26:29.113Z,3.83
2023-01-30T22:29:00.686Z,3.55
2023-01-30T22:31:32.320Z,2.95
2023-01-30T22:33:59.060Z,2.85
2023-01-30T22:36:32.925Z,2.88
2023-01-30T22:38:59.769Z,3.08
2023-01-30T22:41:27.676Z,2.80
2023-01-30T22:43:56.331Z,4.63
2023-01-30T22:46:26.034Z,3.38
2023-01-30T22:48:54.033Z,3.28
2023-01-30T22:51:23.786Z,2.90
2023-01-30T22:53:52.704Z,3.45
2023-01-30T22:56:21.807Z,2.83
2023-01-30T22:58:49.177Z,3.67
2023-01-30T23:01:18.844Z,2.90
2023-01-30T23:03:47.632Z,3.33
2023-01-30T23:06:16.639Z,2.60
2023-01-30T23:08:46.142Z,3.22
2023-01-30T23:11:41.275Z,2.85
2023-01-30T23:14:13.841Z,3.35
2023-01-30T23:16:43.682Z,3.20
2023-01-30T23:19:12.082Z,4.00
2023-01-30T23:21:44.297Z,3.22
2023-01-30T23:24:19.450Z,3.30
2023-01-30T23:26:49.449Z,3.42
2023-01-30T23:29:18.416Z,4.05
2023-01-30T23:31:46.629Z,4.00
2023-01-30T23:34:19.937Z,3.70
2023-01-30T23:36:47.037Z,3.60
2023-01-30T23:39:14.745Z,3.63
2023-01-30T23:41:42.455Z,3.67
2023-01-30T23:44:09.772Z,4.05
2023-01-30T23:46:41.591Z,3.08
2023-01-30T23:49:10.956Z,3.80
2023-01-30T23:51:41.131Z,3.30
2023-01-30T23:54:08.847Z,4.55
2023-01-30T23:56:38.761Z,3.00
2023-01-30T23:59:06.544Z,3.33
